Terminal Aerodrome Forecast
Issued by NWS Denver/Boulder, CO

Home | Current Version | Previous Version | Text Only | Print | Product List | Glossary On
Versions: 1 2 3 4 5 6 7 8 9 10 11 12 13 14 15 16 17 18 19 20 21 22 23 24 25 26 27 28 29 30 31 32
000
FTUS45 KBOU 200259 AAB
TAFDEN
TAF AMD
KDEN 200259Z 2003/2106 14020G28KT P6SM SCT120 BKN200 WS020/18055KT
     FM200800 15017G25KT P6SM SCT120 BKN200
     FM201200 15018G26KT P6SM VCSH SCT070 BKN120
     FM202000 12018G26KT P6SM -SHRA SCT030 BKN050 OVC070
     FM210000 02010KT P6SM -SHRA BKN030 OVC050
     FM210300 36008KT 4SM -SHRA BR SCT008 OVC020=

USA.gov is the U.S. government's official web portal to all federal, state and local government web resources and services.